createdAt,value
2019-03-16T00:01:56.149Z,10.96
2019-03-16T00:04:15.468Z,10.89
2019-03-16T00:06:45.314Z,11.02
2019-03-16T00:09:15.217Z,11.04
2019-03-16T00:11:45.215Z,10.74
2019-03-16T00:14:15.141Z,11.07
2019-03-16T00:16:45.058Z,10.95
2019-03-16T00:19:14.938Z,10.99
2019-03-16T00:21:45.874Z,10.99
2019-03-16T00:24:16.881Z,10.75
2019-03-16T00:26:46.809Z,10.84
2019-03-16T00:29:16.638Z,10.97
2019-03-16T00:31:46.480Z,10.80
2019-03-16T00:34:16.411Z,10.84
2019-03-16T00:36:46.326Z,10.90
2019-03-16T00:39:16.210Z,10.88
2019-03-16T00:41:46.178Z,10.90
2019-03-16T00:44:16.038Z,10.81
2019-03-16T00:46:45.964Z,10.80
2019-03-16T00:49:15.892Z,10.89
2019-03-16T00:51:45.720Z,10.95
2019-03-16T00:54:15.731Z,10.68
2019-03-16T00:56:45.635Z,10.78
2019-03-16T00:59:15.497Z,10.82
2019-03-16T01:01:45.409Z,10.92
2019-03-16T01:04:15.552Z,10.93
2019-03-16T01:06:45.490Z,11.16
2019-03-16T01:09:15.320Z,10.94
2019-03-16T01:11:45.173Z,10.68
2019-03-16T01:14:15.065Z,10.70
2019-03-16T01:16:44.919Z,11.04
2019-03-16T01:19:14.736Z,10.86
2019-03-16T01:21:44.647Z,10.97
2019-03-16T01:24:14.478Z,10.80
2019-03-16T01:26:44.384Z,10.76
2019-03-16T01:29:14.295Z,10.76
2019-03-16T01:31:44.261Z,10.98
2019-03-16T01:34:14.174Z,10.61
2019-03-16T01:36:43.994Z,10.79
2019-03-16T01:39:14.008Z,10.75
2019-03-16T01:41:43.935Z,10.87
2019-03-16T01:44:15.564Z,10.70
2019-03-16T01:46:45.504Z,10.87
2019-03-16T01:49:15.690Z,10.67
2019-03-16T01:51:47.299Z,10.79
2019-03-16T01:54:17.222Z,10.81
2019-03-16T01:56:47.247Z,10.90
2019-03-16T01:59:17.126Z,10.57
2019-03-16T02:01:49.369Z,10.79
2019-03-16T02:04:18.538Z,10.71
2019-03-16T02:06:48.443Z,10.89
2019-03-16T02:09:18.308Z,10.76
2019-03-16T02:11:48.144Z,10.84
2019-03-16T02:14:18.224Z,10.91
2019-03-16T02:16:48.085Z,10.87
2019-03-16T02:19:18.004Z,10.87
2019-03-16T02:21:48.169Z,10.81
2019-03-16T02:24:18.374Z,10.76
2019-03-16T02:26:48.188Z,10.76
2019-03-16T02:29:18.171Z,10.89
2019-03-16T02:31:48.003Z,10.56
2019-03-16T02:34:17.997Z,10.86
2019-03-16T02:36:54.367Z,10.62
2019-03-16T02:39:24.241Z,10.47
2019-03-16T02:41:54.132Z,10.47
2019-03-16T02:44:23.985Z,10.62
2019-03-16T02:46:53.817Z,10.68
2019-03-16T02:49:23.727Z,10.83
2019-03-16T02:51:53.554Z,10.63
2019-03-16T02:54:23.459Z,10.73
2019-03-16T02:56:53.316Z,10.87
2019-03-16T02:59:23.128Z,10.69
2019-03-16T03:01:53.141Z,10.73
2019-03-16T03:04:22.981Z,10.80
2019-03-16T03:06:53.014Z,10.38
2019-03-16T03:09:22.816Z,10.59
2019-03-16T03:11:52.730Z,10.57
2019-03-16T03:14:22.570Z,10.50
2019-03-16T03:16:52.487Z,10.60
2019-03-16T03:19:22.413Z,10.55
2019-03-16T03:21:52.232Z,10.42
2019-03-16T03:24:22.077Z,10.60
2019-03-16T03:26:51.967Z,10.64
2019-03-16T03:29:21.829Z,10.60
2019-03-16T03:31:51.657Z,10.70
2019-03-16T03:34:21.585Z,10.67
2019-03-16T03:36:51.443Z,10.61
2019-03-16T03:39:21.251Z,10.72
2019-03-16T03:41:51.168Z,10.71
2019-03-16T03:44:21.149Z,10.67
2019-03-16T03:46:51.054Z,10.86
2019-03-16T03:49:20.982Z,10.63
2019-03-16T03:51:50.822Z,10.67
2019-03-16T03:54:20.782Z,10.75
2019-03-16T03:56:50.757Z,10.73
2019-03-16T03:59:20.657Z,10.62
2019-03-16T04:01:50.619Z,10.73
2019-03-16T04:04:20.696Z,10.79
2019-03-16T04:06:50.690Z,10.89
2019-03-16T04:09:20.755Z,10.86
2019-03-16T04:11:50.584Z,10.70
2019-03-16T04:14:20.726Z,10.55
2019-03-16T04:16:50.552Z,10.63
2019-03-16T04:19:20.564Z,10.79
2019-03-16T04:21:50.482Z,10.64
2019-03-16T04:24:20.436Z,10.68
2019-03-16T04:26:50.260Z,10.66
2019-03-16T04:29:20.217Z,10.54
2019-03-16T04:31:50.095Z,10.82
2019-03-16T04:34:29.008Z,10.82
2019-03-16T04:36:51.539Z,10.47
2019-03-16T04:39:21.517Z,10.67
2019-03-16T04:41:51.441Z,10.69
2019-03-16T04:44:21.586Z,10.57
2019-03-16T04:46:51.562Z,10.82
2019-03-16T04:49:21.449Z,10.59
2019-03-16T04:51:51.378Z,10.70
2019-03-16T04:54:21.293Z,10.61
2019-03-16T04:56:51.310Z,10.77
2019-03-16T04:59:21.332Z,10.90
2019-03-16T05:01:51.230Z,10.56
2019-03-16T05:04:21.068Z,10.58
2019-03-16T05:06:51.939Z,10.66
2019-03-16T05:09:21.763Z,10.60
2019-03-16T05:11:51.613Z,10.67
2019-03-16T05:14:21.594Z,10.63
2019-03-16T05:16:51.425Z,10.66
2019-03-16T05:19:21.784Z,10.80
2019-03-16T05:21:51.752Z,10.79
2019-03-16T05:24:21.570Z,10.71
2019-03-16T05:26:51.517Z,10.72
2019-03-16T05:29:21.485Z,10.57
2019-03-16T05:31:51.419Z,10.66
2019-03-16T05:34:21.364Z,10.78
2019-03-16T05:36:51.197Z,10.72
2019-03-16T05:39:21.063Z,10.75
2019-03-16T05:41:50.904Z,10.68
2019-03-16T05:44:20.820Z,10.75
2019-03-16T05:46:50.635Z,10.87
2019-03-16T05:49:21.582Z,10.77
2019-03-16T05:51:51.412Z,10.77
2019-03-16T05:54:21.344Z,10.73
2019-03-16T05:56:51.238Z,10.83
2019-03-16T05:59:21.213Z,10.82
2019-03-16T06:01:51.109Z,10.97
2019-03-16T06:04:21.006Z,10.77
2019-03-16T06:06:50.908Z,10.99
2019-03-16T06:09:20.748Z,10.86
2019-03-16T06:11:50.712Z,10.96
2019-03-16T06:14:20.825Z,10.92
2019-03-16T06:16:50.710Z,11.10
2019-03-16T06:19:20.538Z,10.97
2019-03-16T06:21:50.698Z,11.03
2019-03-16T06:24:20.517Z,11.13
2019-03-16T06:26:50.449Z,11.00
2019-03-16T06:29:20.280Z,11.01
2019-03-16T06:31:50.203Z,11.06
2019-03-16T06:34:20.122Z,10.98
2019-03-16T06:36:50.814Z,11.06
2019-03-16T06:39:20.633Z,10.85
2019-03-16T06:41:50.519Z,11.01
2019-03-16T06:44:20.738Z,10.96
2019-03-16T06:46:50.572Z,10.87
2019-03-16T06:49:20.506Z,10.80
2019-03-16T06:51:50.344Z,10.91
2019-03-16T06:54:20.277Z,11.05
2019-03-16T06:56:50.102Z,10.86
2019-03-16T06:59:20.131Z,11.11
2019-03-16T07:01:50.032Z,10.83
2019-03-16T07:04:20.043Z,10.91
2019-03-16T07:06:49.861Z,10.97
2019-03-16T07:09:19.885Z,10.97
2019-03-16T07:11:49.899Z,10.98
2019-03-16T07:14:19.744Z,11.43
2019-03-16T07:17:01.318Z,10.94
2019-03-16T07:19:21.143Z,11.04
2019-03-16T07:21:51.076Z,11.13
2019-03-16T07:24:20.900Z,11.04
2019-03-16T07:26:50.733Z,11.13
2019-03-16T07:29:20.575Z,11.06
2019-03-16T07:31:50.501Z,11.49
2019-03-16T07:34:20.380Z,11.24
2019-03-16T07:36:50.221Z,11.20
2019-03-16T07:39:21.037Z,11.30
2019-03-16T07:41:50.905Z,11.49
2019-03-16T07:44:20.868Z,11.56
2019-03-16T07:46:50.851Z,11.25
2019-03-16T07:49:20.711Z,11.34
2019-03-16T07:51:50.615Z,11.50
2019-03-16T07:54:20.671Z,11.82
2019-03-16T07:56:50.795Z,11.22
2019-03-16T07:59:20.657Z,11.40
2019-03-16T08:01:50.714Z,11.47
2019-03-16T08:04:20.535Z,11.46
2019-03-16T08:06:50.428Z,11.49
2019-03-16T08:09:20.462Z,11.70
2019-03-16T08:11:50.417Z,11.35
2019-03-16T08:14:21.014Z,11.58
2019-03-16T08:16:50.920Z,11.37
2019-03-16T08:19:20.906Z,11.56
2019-03-16T08:21:50.809Z,11.86
2019-03-16T08:24:20.635Z,11.72
2019-03-16T08:26:50.527Z,11.80
2019-03-16T08:29:20.417Z,11.86
2019-03-16T08:31:50.316Z,11.84
2019-03-16T08:34:20.252Z,11.55
2019-03-16T08:36:50.086Z,11.80
2019-03-16T08:39:19.910Z,11.87
2019-03-16T08:41:49.768Z,12.25
2019-03-16T08:44:19.697Z,12.21
2019-03-16T08:46:49.577Z,12.26
2019-03-16T08:49:19.533Z,12.24
2019-03-16T08:51:49.357Z,12.05
2019-03-16T08:54:19.252Z,12.09
2019-03-16T08:56:49.070Z,12.04
2019-03-16T08:59:19.026Z,12.35
2019-03-16T09:01:48.862Z,12.23
2019-03-16T09:04:18.717Z,12.25
2019-03-16T09:06:52.612Z,12.25
2019-03-16T09:09:21.172Z,12.38
2019-03-16T09:11:51.101Z,11.99
2019-03-16T09:14:20.933Z,12.15
2019-03-16T09:16:50.778Z,12.15
2019-03-16T09:19:20.623Z,12.47
2019-03-16T09:21:51.600Z,12.76
2019-03-16T09:24:21.676Z,12.63
2019-03-16T09:26:51.665Z,12.52
2019-03-16T09:29:22.532Z,12.46
2019-03-16T09:31:52.469Z,12.81
2019-03-16T09:34:22.305Z,12.48
2019-03-16T09:36:52.243Z,12.77
2019-03-16T09:39:22.157Z,13.04
2019-03-16T09:41:52.098Z,13.38
2019-03-16T09:44:23.491Z,12.85
2019-03-16T09:46:53.683Z,13.12
2019-03-16T09:49:23.615Z,13.43
2019-03-16T09:51:53.557Z,13.94
2019-03-16T09:54:23.559Z,13.12
2019-03-16T09:57:01.064Z,13.24
2019-03-16T09:59:25.377Z,13.13
2019-03-16T10:01:55.223Z,13.02
2019-03-16T10:04:25.134Z,13.12
2019-03-16T10:06:55.100Z,13.21
2019-03-16T10:09:24.938Z,13.55
2019-03-16T10:11:54.879Z,13.58
2019-03-16T10:14:24.801Z,14.08
2019-03-16T10:16:54.793Z,13.61
2019-03-16T10:19:24.800Z,13.22
2019-03-16T10:21:54.795Z,13.95
2019-03-16T10:24:24.620Z,13.72
2019-03-16T10:26:54.661Z,13.62
2019-03-16T10:29:24.527Z,13.31
2019-03-16T10:31:54.452Z,13.43
2019-03-16T10:34:24.382Z,13.56
2019-03-16T10:36:54.210Z,13.92
2019-03-16T10:39:24.082Z,13.98
2019-03-16T10:41:53.899Z,13.87
2019-03-16T10:44:23.750Z,13.86
2019-03-16T10:46:53.664Z,14.44
2019-03-16T10:49:23.665Z,13.93
2019-03-16T10:51:53.568Z,14.39
2019-03-16T10:54:23.497Z,14.06
2019-03-16T10:56:53.386Z,14.09
2019-03-16T10:59:23.328Z,14.02
2019-03-16T11:01:53.320Z,13.75
2019-03-16T11:04:23.191Z,13.74
2019-03-16T11:06:53.021Z,13.58
2019-03-16T11:09:22.895Z,13.43
2019-03-16T11:11:52.848Z,13.85
2019-03-16T11:14:22.707Z,13.66
2019-03-16T11:16:52.552Z,13.57
2019-03-16T11:19:22.384Z,13.41
2019-03-16T11:21:52.323Z,13.45
2019-03-16T11:24:22.251Z,13.83
2019-03-16T11:26:52.084Z,13.67
2019-03-16T11:29:21.997Z,13.37
2019-03-16T11:31:51.939Z,13.13
2019-03-16T11:34:21.932Z,13.42
2019-03-16T11:36:51.803Z,13.89
2019-03-16T11:39:21.606Z,13.86
2019-03-16T11:41:51.465Z,13.83
2019-03-16T11:44:21.428Z,14.01
2019-03-16T11:46:51.303Z,14.25
2019-03-16T11:49:21.159Z,14.35
2019-03-16T11:51:50.992Z,14.16
2019-03-16T11:54:20.855Z,14.30
2019-03-16T11:56:50.691Z,14.47
2019-03-16T11:59:21.972Z,14.63
2019-03-16T12:01:52.031Z,15.20
2019-03-16T12:04:21.968Z,14.92
2019-03-16T12:06:51.882Z,14.85
2019-03-16T12:09:21.903Z,14.94
2019-03-16T12:11:51.884Z,14.81
2019-03-16T12:14:21.729Z,15.14
2019-03-16T12:16:51.756Z,15.39
2019-03-16T12:19:21.758Z,15.41
2019-03-16T12:21:51.665Z,15.48
2019-03-16T12:24:21.504Z,15.46
2019-03-16T12:26:51.447Z,15.23
2019-03-16T12:29:33.141Z,15.14
2019-03-16T12:31:53.002Z,14.96
2019-03-16T12:34:22.835Z,14.79
2019-03-16T12:36:52.688Z,14.87
2019-03-16T12:39:22.558Z,15.22
2019-03-16T12:41:52.476Z,14.78
2019-03-16T12:44:22.379Z,14.91
2019-03-16T12:46:52.278Z,15.08
2019-03-16T12:49:22.126Z,15.23
2019-03-16T12:51:51.952Z,15.18
2019-03-16T12:54:21.784Z,15.16
2019-03-16T12:56:51.626Z,14.98
2019-03-16T12:59:21.537Z,15.04
2019-03-16T13:01:51.359Z,15.12
2019-03-16T13:04:21.313Z,15.29
2019-03-16T13:06:52.379Z,15.17
2019-03-16T13:09:22.302Z,15.05
2019-03-16T13:11:52.203Z,14.95
2019-03-16T13:14:22.643Z,15.17
2019-03-16T13:16:52.780Z,15.28
2019-03-16T13:19:22.624Z,15.57
2019-03-16T13:21:52.601Z,15.47
2019-03-16T13:24:22.468Z,15.76
2019-03-16T13:26:52.394Z,15.68
2019-03-16T13:29:23.355Z,16.12
2019-03-16T13:31:53.282Z,16.12
2019-03-16T13:34:23.303Z,16.15
2019-03-16T13:36:53.195Z,16.79
2019-03-16T13:39:23.314Z,16.75
2019-03-16T13:41:53.314Z,16.34
2019-03-16T13:44:23.191Z,16.05
2019-03-16T13:46:53.171Z,15.96
2019-03-16T13:49:23.129Z,16.44
2019-03-16T13:51:52.989Z,16.01
2019-03-16T13:54:23.148Z,16.57
2019-03-16T13:56:52.982Z,16.65
2019-03-16T13:59:22.906Z,17.10
2019-03-16T14:01:52.739Z,16.66
2019-03-16T14:04:22.591Z,16.46
2019-03-16T14:06:52.429Z,16.32
2019-03-16T14:09:22.276Z,16.58
2019-03-16T14:11:52.381Z,16.73
2019-03-16T14:14:22.206Z,16.82
2019-03-16T14:16:52.057Z,17.15
2019-03-16T14:19:22.859Z,16.82
2019-03-16T14:21:52.728Z,16.22
2019-03-16T14:24:22.995Z,16.63
2019-03-16T14:26:53.297Z,16.83
2019-03-16T14:29:23.615Z,16.73
2019-03-16T14:31:53.532Z,16.41
2019-03-16T14:34:23.360Z,16.76
2019-03-16T14:36:53.271Z,16.96
2019-03-16T14:39:23.097Z,17.57
2019-03-16T14:41:53.023Z,17.38
2019-03-16T14:44:22.939Z,17.56
2019-03-16T14:46:52.904Z,17.94
2019-03-16T14:49:22.746Z,17.62
2019-03-16T14:51:52.605Z,17.83
2019-03-16T14:54:22.455Z,17.91
2019-03-16T14:56:53.468Z,17.78
2019-03-16T14:59:24.384Z,17.49
2019-03-16T15:01:54.335Z,17.42
2019-03-16T15:04:24.211Z,17.55
2019-03-16T15:06:54.134Z,18.08
2019-03-16T15:09:25.255Z,17.93
2019-03-16T15:11:55.169Z,17.92
2019-03-16T15:14:25.165Z,18.02
2019-03-16T15:16:55.081Z,18.30
2019-03-16T15:19:25.163Z,17.91
2019-03-16T15:21:54.982Z,17.49
2019-03-16T15:24:24.975Z,17.38
2019-03-16T15:26:54.959Z,17.98
2019-03-16T15:29:24.919Z,17.68
2019-03-16T15:31:54.986Z,17.83
2019-03-16T15:34:24.957Z,17.72
2019-03-16T15:36:54.802Z,17.79
2019-03-16T15:39:26.247Z,17.83
2019-03-16T15:41:56.166Z,18.10
2019-03-16T15:44:26.098Z,17.80
2019-03-16T15:46:55.995Z,17.76
2019-03-16T15:49:25.898Z,17.71
2019-03-16T15:51:55.735Z,17.76
2019-03-16T15:54:25.703Z,17.75
2019-03-16T15:56:55.650Z,18.11
2019-03-16T15:59:25.565Z,17.78
2019-03-16T16:01:55.437Z,17.19
2019-03-16T16:04:25.387Z,17.03
2019-03-16T16:06:55.411Z,17.21
2019-03-16T16:09:25.271Z,17.57
2019-03-16T16:11:55.113Z,18.13
2019-03-16T16:14:25.059Z,17.80
2019-03-16T16:16:54.882Z,18.08
2019-03-16T16:19:24.793Z,17.90
2019-03-16T16:21:54.647Z,18.59
2019-03-16T16:24:24.591Z,18.35
2019-03-16T16:26:54.523Z,18.25
2019-03-16T16:29:24.345Z,18.06
2019-03-16T16:31:54.273Z,18.43
2019-03-16T16:34:24.110Z,18.25
2019-03-16T16:36:54.065Z,18.28
2019-03-16T16:39:24.193Z,18.25
2019-03-16T16:41:54.108Z,17.99
2019-03-16T16:44:23.999Z,17.69
2019-03-16T16:46:53.861Z,17.65
2019-03-16T16:49:23.695Z,17.56
2019-03-16T16:51:53.542Z,17.49
2019-03-16T16:54:23.384Z,17.68
2019-03-16T16:56:53.363Z,17.87
2019-03-16T16:59:23.277Z,17.35
2019-03-16T17:01:53.103Z,17.23
2019-03-16T17:04:22.959Z,17.03
2019-03-16T17:06:52.890Z,16.85
2019-03-16T17:09:22.842Z,16.69
2019-03-16T17:11:52.823Z,16.50
2019-03-16T17:14:22.669Z,16.47
2019-03-16T17:16:52.492Z,16.21
2019-03-16T17:19:22.442Z,16.07
2019-03-16T17:21:52.366Z,16.16
2019-03-16T17:24:22.219Z,16.03
2019-03-16T17:26:52.135Z,15.97
2019-03-16T17:29:22.141Z,15.80
2019-03-16T17:31:52.151Z,15.82
2019-03-16T17:34:22.020Z,15.81
2019-03-16T17:36:51.882Z,15.74
2019-03-16T17:39:21.806Z,15.62
2019-03-16T17:41:51.727Z,15.39
2019-03-16T17:44:21.632Z,15.48
2019-03-16T17:46:51.522Z,15.33
2019-03-16T17:49:21.539Z,15.17
2019-03-16T17:51:51.367Z,15.33
2019-03-16T17:54:22.492Z,15.19
2019-03-16T17:56:52.340Z,15.33
2019-03-16T17:59:24.037Z,15.31
2019-03-16T18:01:55.118Z,15.37
2019-03-16T18:04:27.711Z,15.29
2019-03-16T18:06:57.001Z,15.27
2019-03-16T18:09:26.913Z,15.14
2019-03-16T18:11:56.859Z,15.01
2019-03-16T18:14:26.865Z,15.00
2019-03-16T18:16:56.794Z,14.94
2019-03-16T18:19:26.791Z,14.96
2019-03-16T18:21:56.724Z,14.85
2019-03-16T18:24:26.687Z,14.93
2019-03-16T18:26:56.537Z,14.85
2019-03-16T18:29:26.664Z,14.89
2019-03-16T18:32:07.225Z,14.78
2019-03-16T18:34:28.127Z,14.76
2019-03-16T18:36:58.208Z,14.78
2019-03-16T18:39:28.157Z,14.70
2019-03-16T18:41:58.125Z,14.71
2019-03-16T18:44:27.964Z,14.71
2019-03-16T18:46:57.922Z,14.62
2019-03-16T18:49:27.989Z,14.51
2019-03-16T18:51:58.113Z,14.55
2019-03-16T18:54:28.127Z,14.66
2019-03-16T18:56:58.092Z,14.60
2019-03-16T18:59:28.068Z,14.51
2019-03-16T19:01:57.968Z,14.45
2019-03-16T19:04:27.927Z,14.40
2019-03-16T19:06:58.063Z,14.28
2019-03-16T19:09:28.031Z,14.29
2019-03-16T19:11:57.865Z,14.24
2019-03-16T19:14:27.809Z,14.27
2019-03-16T19:16:57.847Z,14.08
2019-03-16T19:19:27.857Z,13.98
2019-03-16T19:21:57.919Z,13.99
2019-03-16T19:24:27.979Z,13.89
2019-03-16T19:26:57.925Z,13.81
2019-03-16T19:29:27.948Z,13.75
2019-03-16T19:31:57.935Z,13.74
2019-03-16T19:34:28.116Z,13.82
2019-03-16T19:36:58.053Z,13.78
2019-03-16T19:39:28.191Z,13.81
2019-03-16T19:41:58.052Z,13.83
2019-03-16T19:44:27.900Z,13.82
2019-03-16T19:46:57.768Z,13.66
2019-03-16T19:49:27.624Z,13.68
2019-03-16T19:51:57.499Z,13.76
2019-03-16T19:54:27.353Z,13.74
2019-03-16T19:56:57.187Z,13.73
2019-03-16T19:59:27.032Z,13.74
2019-03-16T20:01:56.988Z,13.61
2019-03-16T20:04:36.049Z,13.60
2019-03-16T20:06:58.606Z,13.57
2019-03-16T20:09:28.545Z,13.61
2019-03-16T20:11:58.487Z,13.66
2019-03-16T20:14:28.419Z,13.68
2019-03-16T20:16:58.378Z,13.57
2019-03-16T20:19:28.201Z,13.70
2019-03-16T20:21:58.238Z,13.72
2019-03-16T20:24:28.187Z,13.76
2019-03-16T20:26:58.115Z,13.85
2019-03-16T20:29:27.963Z,13.80
2019-03-16T20:31:58.756Z,13.91
2019-03-16T20:34:31.961Z,14.03
2019-03-16T20:37:00.686Z,14.49
2019-03-16T20:39:30.868Z,14.54
2019-03-16T20:42:01.097Z,14.58
2019-03-16T20:44:31.117Z,14.75
2019-03-16T20:47:00.979Z,14.65
2019-03-16T20:49:30.942Z,14.88
2019-03-16T20:52:00.889Z,14.94
2019-03-16T20:54:30.886Z,14.97
2019-03-16T20:57:00.735Z,15.00
2019-03-16T20:59:30.610Z,15.01
2019-03-16T21:02:00.532Z,15.11
2019-03-16T21:04:30.502Z,15.11
2019-03-16T21:07:00.331Z,15.04
2019-03-16T21:09:30.255Z,14.96
2019-03-16T21:12:00.184Z,15.04
2019-03-16T21:14:30.123Z,14.96
2019-03-16T21:16:59.954Z,15.04
2019-03-16T21:19:29.809Z,15.01
2019-03-16T21:21:59.713Z,15.03
2019-03-16T21:24:30.734Z,14.98
2019-03-16T21:27:00.632Z,14.99
2019-03-16T21:29:30.616Z,15.04
2019-03-16T21:32:00.589Z,15.07
2019-03-16T21:34:33.260Z,14.92
2019-03-16T21:37:02.036Z,14.88
2019-03-16T21:39:31.882Z,14.90
2019-03-16T21:42:01.818Z,15.06
2019-03-16T21:44:31.783Z,14.83
2019-03-16T21:47:01.616Z,14.83
2019-03-16T21:49:31.554Z,14.87
2019-03-16T21:52:02.875Z,15.00
2019-03-16T21:54:33.064Z,14.67
2019-03-16T21:57:03.024Z,14.79
2019-03-16T21:59:33.037Z,14.84
2019-03-16T22:02:02.968Z,14.86
2019-03-16T22:04:32.852Z,14.64
2019-03-16T22:07:03.869Z,14.63
2019-03-16T22:09:33.914Z,14.55
2019-03-16T22:12:03.830Z,14.52
2019-03-16T22:14:33.806Z,14.44
2019-03-16T22:17:03.797Z,14.54
2019-03-16T22:19:34.641Z,14.32
2019-03-16T22:22:04.653Z,14.29
2019-03-16T22:24:34.569Z,14.35
2019-03-16T22:27:04.517Z,14.42
2019-03-16T22:29:34.383Z,14.38
2019-03-16T22:32:04.293Z,14.42
2019-03-16T22:34:34.307Z,14.33
2019-03-16T22:37:04.165Z,14.48
2019-03-16T22:39:34.028Z,14.30
2019-03-16T22:42:04.060Z,14.16
2019-03-16T22:44:33.967Z,14.37
2019-03-16T22:47:04.040Z,14.58
2019-03-16T22:49:33.961Z,14.64
2019-03-16T22:52:04.987Z,14.65
2019-03-16T22:54:34.883Z,14.68
2019-03-16T22:57:04.918Z,14.56
2019-03-16T22:59:34.744Z,14.38
2019-03-16T23:02:05.144Z,14.18
2019-03-16T23:04:35.080Z,14.12
2019-03-16T23:07:05.022Z,14.02
2019-03-16T23:09:36.081Z,13.81
2019-03-16T23:12:06.075Z,13.70
2019-03-16T23:14:36.013Z,13.69
2019-03-16T23:17:05.945Z,13.58
2019-03-16T23:19:35.902Z,13.64
2019-03-16T23:22:05.893Z,13.60
2019-03-16T23:24:35.773Z,13.52
2019-03-16T23:27:05.777Z,13.39
2019-03-16T23:29:35.687Z,13.41
2019-03-16T23:32:05.694Z,13.54
2019-03-16T23:34:35.690Z,13.53
2019-03-16T23:37:05.667Z,13.44
2019-03-16T23:39:36.651Z,13.38
2019-03-16T23:42:06.628Z,13.41
2019-03-16T23:44:36.535Z,13.54
2019-03-16T23:47:06.456Z,13.62
2019-03-16T23:49:36.387Z,13.78
2019-03-16T23:52:06.360Z,13.62
2019-03-16T23:54:36.382Z,13.40
2019-03-16T23:57:06.376Z,13.39
2019-03-16T23:59:36.300Z,13.36
